createdAt,value
2018-10-09T00:00:26.733Z,45.83
2018-10-09T00:05:30.149Z,45.80
2018-10-09T00:10:33.648Z,46.11
2018-10-09T00:15:37.121Z,46.00
2018-10-09T00:20:40.556Z,46.24
2018-10-09T00:25:43.964Z,46.35
2018-10-09T00:30:47.404Z,46.67
2018-10-09T00:35:50.820Z,46.51
2018-10-09T00:40:54.256Z,47.01
2018-10-09T00:51:00.120Z,47.09
2018-10-09T00:56:03.531Z,47.29
2018-10-09T01:01:06.987Z,47.17
2018-10-09T01:06:10.416Z,47.47
2018-10-09T01:11:13.865Z,47.37
2018-10-09T01:16:17.265Z,47.45
2018-10-09T01:21:20.764Z,47.77
2018-10-09T01:26:24.201Z,47.70
2018-10-09T01:31:27.612Z,47.89
2018-10-09T01:36:31.040Z,47.88
2018-10-09T01:41:34.460Z,47.81
2018-10-09T01:46:37.868Z,47.99
2018-10-09T01:51:41.297Z,48.21
2018-10-09T01:56:44.704Z,48.25
2018-10-09T02:01:48.116Z,48.26
2018-10-09T02:06:51.534Z,48.42
2018-10-09T02:11:54.939Z,48.34
2018-10-09T02:16:58.357Z,48.60
2018-10-09T02:22:01.773Z,48.97
2018-10-09T02:27:05.212Z,49.09
2018-10-09T02:32:08.648Z,48.75
2018-10-09T02:37:12.043Z,48.94
2018-10-09T02:42:15.452Z,49.05
2018-10-09T02:47:18.863Z,49.04
2018-10-09T02:52:22.274Z,49.07
2018-10-09T02:57:25.680Z,49.21
2018-10-09T03:02:29.160Z,49.16
2018-10-09T03:07:32.564Z,49.41
2018-10-09T03:12:35.987Z,49.05
2018-10-09T03:17:39.432Z,49.34
2018-10-09T03:22:42.910Z,49.55
2018-10-09T03:27:46.322Z,49.56
2018-10-09T03:32:49.732Z,49.29
2018-10-09T03:37:53.151Z,49.38
2018-10-09T03:42:56.568Z,49.45
2018-10-09T03:47:59.976Z,49.52
2018-10-09T03:53:03.412Z,49.53
2018-10-09T03:58:07.083Z,48.66
2018-10-09T04:03:10.496Z,48.95
2018-10-09T04:08:13.961Z,48.35
2018-10-09T04:13:17.389Z,48.19
2018-10-09T04:18:20.835Z,47.78
2018-10-09T04:23:24.262Z,47.70
2018-10-09T04:28:27.713Z,47.49
2018-10-09T04:33:31.175Z,47.28
2018-10-09T04:38:34.599Z,47.30
2018-10-09T04:43:38.024Z,47.35
2018-10-09T04:48:41.435Z,47.35
2018-10-09T04:53:44.869Z,47.43
2018-10-09T04:58:48.297Z,47.52
2018-10-09T05:03:51.734Z,47.30
2018-10-09T05:08:55.150Z,47.14
2018-10-09T05:13:58.584Z,47.09
2018-10-09T05:19:02.025Z,47.51
2018-10-09T05:24:05.448Z,47.54
2018-10-09T05:29:08.877Z,47.37
2018-10-09T05:34:12.321Z,46.86
2018-10-09T05:39:15.758Z,47.24
2018-10-09T05:44:19.256Z,47.00
2018-10-09T05:49:22.643Z,46.87
2018-10-09T05:54:26.101Z,46.95
2018-10-09T05:59:29.536Z,46.41
2018-10-09T06:04:32.960Z,46.58
2018-10-09T06:09:36.400Z,46.43
2018-10-09T06:14:39.832Z,46.25
2018-10-09T06:19:43.252Z,46.06
2018-10-09T06:24:46.668Z,46.26
2018-10-09T06:29:50.100Z,46.21
2018-10-09T06:34:53.525Z,46.20
2018-10-09T06:39:56.960Z,45.85
2018-10-09T06:45:00.423Z,45.75
2018-10-09T06:50:03.995Z,45.88
2018-10-09T06:55:07.428Z,45.99
2018-10-09T07:00:10.892Z,46.15
2018-10-09T07:05:14.333Z,45.68
2018-10-09T07:10:17.767Z,45.67
2018-10-09T07:15:21.209Z,45.25
2018-10-09T07:20:24.644Z,45.10
2018-10-09T07:25:28.099Z,45.25
2018-10-09T07:30:31.532Z,45.18
2018-10-09T07:35:34.956Z,45.19
2018-10-09T07:40:38.378Z,45.06
2018-10-09T07:45:41.823Z,45.36
2018-10-09T07:50:45.264Z,45.05
2018-10-09T07:55:48.701Z,44.89
2018-10-09T08:00:52.133Z,44.83
2018-10-09T08:05:55.570Z,44.84
2018-10-09T08:10:59.065Z,45.14
2018-10-09T08:16:02.557Z,45.01
2018-10-09T08:21:06.122Z,45.25
2018-10-09T08:26:09.551Z,44.98
2018-10-09T08:31:13.015Z,44.94
2018-10-09T08:36:16.506Z,44.98
2018-10-09T08:41:20.075Z,45.99
2018-10-09T08:46:23.506Z,51.81
2018-10-09T08:51:26.881Z,52.79
2018-10-09T08:56:30.438Z,53.65
2018-10-09T09:01:33.881Z,55.13
2018-10-09T09:06:37.329Z,54.72
2018-10-09T09:11:40.781Z,55.20
2018-10-09T09:16:44.250Z,55.25
2018-10-09T09:21:47.729Z,55.58
2018-10-09T09:26:51.218Z,56.18
2018-10-09T09:31:54.670Z,55.57
2018-10-09T09:36:58.153Z,56.55
2018-10-09T09:42:01.577Z,56.42
2018-10-09T09:47:05.025Z,56.74
2018-10-09T09:52:08.555Z,56.17
2018-10-09T09:57:12.045Z,56.82
2018-10-09T10:02:15.481Z,56.52
2018-10-09T10:07:18.920Z,56.16
2018-10-09T10:12:22.369Z,56.39
2018-10-09T10:17:25.813Z,56.74
2018-10-09T10:22:29.375Z,56.83
2018-10-09T10:27:33.070Z,56.48
2018-10-09T10:32:36.500Z,56.59
2018-10-09T10:37:39.943Z,56.46
2018-10-09T10:42:43.760Z,56.41
2018-10-09T10:47:47.189Z,56.37
2018-10-09T10:52:50.715Z,56.67
2018-10-09T10:57:54.149Z,56.42
2018-10-09T11:02:57.585Z,56.42
2018-10-09T11:08:01.127Z,56.48
2018-10-09T11:13:04.510Z,56.30
2018-10-09T11:18:07.945Z,55.69
2018-10-09T11:23:11.395Z,55.24
2018-10-09T11:28:14.869Z,53.59
2018-10-09T11:33:18.356Z,52.99
2018-10-09T11:38:21.765Z,53.05
2018-10-09T11:43:25.212Z,52.85
2018-10-09T11:48:28.661Z,53.85
2018-10-09T11:53:32.105Z,52.91
2018-10-09T11:58:35.568Z,52.28
2018-10-09T12:03:38.988Z,52.56
2018-10-09T12:08:42.421Z,52.45
2018-10-09T12:13:45.901Z,51.96
2018-10-09T12:18:49.358Z,52.23
2018-10-09T12:23:52.837Z,52.05
2018-10-09T12:28:56.369Z,51.62
2018-10-09T12:33:59.797Z,51.75
2018-10-09T12:39:04.235Z,51.65
2018-10-09T12:44:07.881Z,51.75
2018-10-09T12:49:11.333Z,51.67
2018-10-09T12:54:14.763Z,51.23
2018-10-09T12:59:18.226Z,51.21
2018-10-09T13:04:21.647Z,51.15
2018-10-09T13:09:25.143Z,51.29
2018-10-09T13:14:28.572Z,51.36
2018-10-09T13:19:32.038Z,51.08
2018-10-09T13:24:35.494Z,51.21
2018-10-09T13:29:38.929Z,51.10
2018-10-09T13:34:42.339Z,50.69
2018-10-09T13:39:45.773Z,51.30
2018-10-09T13:50:25.291Z,51.08
2018-10-09T13:55:28.701Z,51.13
2018-10-09T14:00:32.211Z,50.96
2018-10-09T14:05:35.633Z,50.63
2018-10-09T14:10:39.059Z,50.49
2018-10-09T14:15:42.537Z,50.88
2018-10-09T14:20:45.978Z,50.88
2018-10-09T14:25:49.441Z,50.62
2018-10-09T14:30:52.889Z,50.86
2018-10-09T14:35:56.396Z,50.63
2018-10-09T14:41:00.031Z,50.48
2018-10-09T14:46:03.826Z,50.72
2018-10-09T14:51:07.539Z,50.37
2018-10-09T14:56:10.972Z,50.79
2018-10-09T15:01:14.701Z,50.18
2018-10-09T15:06:18.401Z,50.82
2018-10-09T15:11:21.884Z,50.73
2018-10-09T15:16:25.625Z,51.25
2018-10-09T15:21:29.115Z,51.34
2018-10-09T15:26:32.964Z,51.71
2018-10-09T15:31:36.651Z,51.60
2018-10-09T15:36:40.239Z,52.05
2018-10-09T15:41:43.914Z,52.49
2018-10-09T15:46:47.526Z,52.37
2018-10-09T15:51:51.341Z,52.54
2018-10-09T15:56:55.176Z,53.17
2018-10-09T16:01:58.642Z,53.49
2018-10-09T16:07:02.121Z,53.66
2018-10-09T16:12:05.576Z,54.87
2018-10-09T16:17:09.060Z,53.23
2018-10-09T16:22:12.535Z,53.22
2018-10-09T16:27:16.005Z,52.52
2018-10-09T16:32:19.515Z,52.58
2018-10-09T16:37:22.954Z,52.42
2018-10-09T16:42:26.418Z,51.83
2018-10-09T16:47:29.923Z,51.36
2018-10-09T16:52:33.374Z,51.83
2018-10-09T16:57:36.853Z,51.67
2018-10-09T17:02:40.313Z,51.32
2018-10-09T17:07:43.801Z,51.83
2018-10-09T17:12:47.268Z,51.59
2018-10-09T17:17:50.751Z,51.69
2018-10-09T17:22:54.210Z,51.44
2018-10-09T17:27:57.685Z,51.42
2018-10-09T17:33:01.218Z,51.50
2018-10-09T17:38:04.642Z,51.03
2018-10-09T17:43:08.290Z,50.96
2018-10-09T17:48:11.784Z,51.05
2018-10-09T17:53:15.255Z,50.94
2018-10-09T17:58:18.749Z,51.46
2018-10-09T18:03:22.344Z,51.37
2018-10-09T18:08:25.965Z,51.38
2018-10-09T18:13:29.426Z,50.99
2018-10-09T18:18:32.889Z,51.27
2018-10-09T18:23:36.313Z,51.09
2018-10-09T18:28:39.776Z,51.11
2018-10-09T18:33:43.236Z,50.70
2018-10-09T18:38:46.675Z,50.52
2018-10-09T18:43:50.141Z,50.80
2018-10-09T18:48:53.580Z,50.63
2018-10-09T18:53:57.026Z,50.72
2018-10-09T18:59:00.558Z,50.17
2018-10-09T19:04:04.029Z,49.97
2018-10-09T19:09:10.556Z,49.90
2018-10-09T19:14:13.962Z,50.13
2018-10-09T19:19:17.408Z,49.69
2018-10-09T19:24:20.954Z,49.80
2018-10-09T19:29:24.542Z,49.77
2018-10-09T19:34:28.113Z,49.75
2018-10-09T19:39:31.593Z,49.45
2018-10-09T19:44:35.211Z,49.36
2018-10-09T19:49:38.696Z,49.72
